Time,TemperatureF,DewpointF,PressureIn,WindDirection,WindDirectionDegrees,WindSpeedMPH,WindSpeedGustMPH,Humidity,HourlyPrecipIn,Conditions,Clouds,dailyrainin,SoftwareType,DateUTC
2013-02-28 00:02:00,39.0,36.0,29.62,West,269,0.0,0.0,90,0.00,,,0.00,,2013-02-28 05:02:00,
2013-02-28 00:11:00,39.0,36.0,29.62,West,269,0.0,0.0,90,0.00,,,0.00,,2013-02-28 05:11:00,
2013-02-28 00:22:00,39.0,37.0,29.62,West,269,0.0,0.0,91,0.00,,,0.00,,2013-02-28 05:22:00,
2013-02-28 00:32:00,38.0,36.0,29.62,West,269,0.0,0.0,91,0.00,,,0.00,,2013-02-28 05:32:00,
2013-02-28 00:42:00,38.0,36.0,29.62,West,269,0.0,0.0,91,0.00,,,0.00,,2013-02-28 05:42:00,
2013-02-28 00:52:00,38.0,36.0,29.62,West,269,0.0,0.0,92,0.00,,,0.00,,2013-02-28 05:52:00,
2013-02-28 01:01:00,38.0,36.0,29.62,West,269,0.0,0.0,92,0.00,,,0.00,,2013-02-28 06:01:00,
2013-02-28 01:11:00,38.0,36.0,29.62,West,269,0.0,0.0,92,0.00,,,0.00,,2013-02-28 06:11:00,
2013-02-28 01:22:00,38.0,36.0,29.62,West,269,0.0,0.0,93,0.00,,,0.00,,2013-02-28 06:22:00,
2013-02-28 01:32:00,39.0,37.0,29.62,SSW,202,0.0,0.0,91,0.00,,,0.00,,2013-02-28 06:32:00,
2013-02-28 01:42:00,39.0,37.0,29.62,SSW,202,0.0,0.0,91,0.00,,,0.00,,2013-02-28 06:42:00,
2013-02-28 01:52:00,40.0,37.0,29.62,SSW,202,0.0,2.0,89,0.00,,,0.00,,2013-02-28 06:52:00,
2013-02-28 02:01:00,40.0,36.0,29.63,NW,304,0.0,3.0,86,0.00,,,0.00,,2013-02-28 07:01:00,
2013-02-28 02:11:00,40.0,36.0,29.63,NW,304,0.0,3.0,86,0.00,,,0.00,,2013-02-28 07:11:00,
2013-02-28 02:21:00,41.0,37.0,29.64,NW,305,0.0,5.0,84,0.00,,,0.00,,2013-02-28 07:21:00,
2013-02-28 02:32:00,42.0,37.0,29.64,NNW,330,0.0,2.0,83,0.00,,,0.00,,2013-02-28 07:32:00,
2013-02-28 02:42:00,42.0,37.0,29.64,NNW,330,0.0,2.0,83,0.00,,,0.00,,2013-02-28 07:42:00,
2013-02-28 02:52:00,41.0,37.0,29.63,NNW,333,0.0,1.0,84,0.00,,,0.00,,2013-02-28 07:52:00,
2013-02-28 03:01:00,41.0,37.0,29.63,NNW,333,0.0,0.0,85,0.00,,,0.00,,2013-02-28 08:01:00,
2013-02-28 03:11:00,41.0,37.0,29.63,NNW,333,0.0,0.0,85,0.00,,,0.00,,2013-02-28 08:11:00,
2013-02-28 03:22:00,40.0,36.0,29.62,NNW,333,0.0,0.0,86,0.00,,,0.00,,2013-02-28 08:22:00,
2013-02-28 03:32:00,39.0,35.0,29.62,NNW,333,0.0,0.0,86,0.00,,,0.00,,2013-02-28 08:32:00,
2013-02-28 03:42:00,39.0,35.0,29.62,NNW,333,0.0,0.0,86,0.00,,,0.00,,2013-02-28 08:42:00,
2013-02-28 03:53:00,38.0,34.0,29.62,NNW,333,0.0,0.0,87,0.00,,,0.00,,2013-02-28 08:53:00,
2013-02-28 04:03:00,38.0,35.0,29.62,NNW,333,0.0,0.0,90,0.00,,,0.00,,2013-02-28 09:03:00,
2013-02-28 04:12:00,38.0,35.0,29.62,NNW,333,0.0,0.0,90,0.00,,,0.00,,2013-02-28 09:12:00,
2013-02-28 04:22:00,37.0,35.0,29.62,NNW,333,0.0,0.0,91,0.00,,,0.00,,2013-02-28 09:22:00,
2013-02-28 04:32:00,37.0,35.0,29.62,NNW,333,0.0,0.0,92,0.00,,,0.00,,2013-02-28 09:32:00,
2013-02-28 04:42:00,37.0,35.0,29.62,NNW,333,0.0,0.0,92,0.00,,,0.00,,2013-02-28 09:42:00,
2013-02-28 04:52:00,36.0,34.0,29.63,NNW,333,0.0,0.0,92,0.00,,,0.00,,2013-02-28 09:52:00,
2013-02-28 05:02:00,36.0,34.0,29.64,NNW,333,0.0,0.0,92,0.00,,,0.00,,2013-02-28 10:02:00,
2013-02-28 05:11:00,35.0,33.0,29.64,NNW,333,0.0,0.0,93,0.00,,,0.00,,2013-02-28 10:11:00,
2013-02-28 05:22:00,35.0,33.0,29.64,NNW,333,0.0,0.0,93,0.00,,,0.00,,2013-02-28 10:22:00,
2013-02-28 05:32:00,35.0,33.0,29.64,NNW,333,0.0,0.0,93,0.00,,,0.00,,2013-02-28 10:32:00,
2013-02-28 05:42:00,35.0,33.0,29.64,NNW,333,0.0,0.0,93,0.00,,,0.00,,2013-02-28 10:42:00,
2013-02-28 05:52:00,35.0,33.0,29.65,NNW,333,0.0,0.0,93,0.00,,,0.00,,2013-02-28 10:52:00,
2013-02-28 06:02:00,35.0,33.0,29.65,NNW,333,0.0,0.0,94,0.00,,,0.00,,2013-02-28 11:02:00,
2013-02-28 06:11:00,35.0,33.0,29.65,NNW,333,0.0,0.0,94,0.00,,,0.00,,2013-02-28 11:11:00,
2013-02-28 06:22:00,35.0,33.0,29.65,NNW,333,0.0,0.0,94,0.00,,,0.00,,2013-02-28 11:22:00,
2013-02-28 06:32:00,35.0,33.0,29.66,NNW,333,0.0,0.0,94,0.00,,,0.00,,2013-02-28 11:32:00,
2013-02-28 06:42:00,35.0,33.0,29.66,NNW,333,0.0,0.0,94,0.00,,,0.00,,2013-02-28 11:42:00,
2013-02-28 06:52:00,36.0,35.0,29.66,NNW,333,0.0,0.0,95,0.00,,,0.00,,2013-02-28 11:52:00,
2013-02-28 07:02:00,35.0,34.0,29.67,NNW,333,0.0,0.0,95,0.00,,,0.00,,2013-02-28 12:02:00,
2013-02-28 07:11:00,35.0,34.0,29.67,NNW,333,0.0,0.0,95,0.00,,,0.00,,2013-02-28 12:11:00,
2013-02-28 07:22:00,36.0,35.0,29.66,NNW,333,0.0,0.0,95,0.00,,,0.00,,2013-02-28 12:22:00,
2013-02-28 07:32:00,36.0,35.0,29.67,NNW,333,0.0,0.0,95,0.00,,,0.00,,2013-02-28 12:32:00,
2013-02-28 07:42:00,36.0,35.0,29.67,NNW,333,0.0,0.0,95,0.00,,,0.00,,2013-02-28 12:42:00,
2013-02-28 07:52:00,37.0,36.0,29.67,NNW,333,0.0,0.0,95,0.00,,,0.00,,2013-02-28 12:52:00,
2013-02-28 08:02:00,37.0,36.0,29.67,NNW,333,0.0,0.0,96,0.00,,,0.00,,2013-02-28 13:02:00,
2013-02-28 08:11:00,38.0,37.0,29.67,NNW,333,0.0,0.0,96,0.00,,,0.00,,2013-02-28 13:11:00,
2013-02-28 08:22:00,38.0,37.0,29.67,NNW,333,0.0,0.0,96,0.00,,,0.00,,2013-02-28 13:22:00,
2013-02-28 08:32:00,39.0,38.0,29.68,NNW,333,0.0,2.0,96,0.00,,,0.00,,2013-02-28 13:32:00,
2013-02-28 08:42:00,39.0,38.0,29.68,NNW,333,0.0,2.0,96,0.00,,,0.00,,2013-02-28 13:42:00,
2013-02-28 08:52:00,41.0,39.0,29.68,NW,308,0.0,3.0,93,0.00,,,0.00,,2013-02-28 13:52:00,
2013-02-28 09:01:00,42.0,35.0,29.68,NW,324,0.0,3.0,76,0.00,,,0.00,,2013-02-28 14:01:00,
2013-02-28 09:11:00,44.0,34.0,29.68,WNW,282,0.0,6.0,67,0.00,,,0.00,,2013-02-28 14:11:00,
2013-02-28 09:22:00,44.0,34.0,29.68,WNW,282,0.0,6.0,67,0.00,,,0.00,,2013-02-28 14:22:00,
2013-02-28 09:32:00,44.0,33.0,29.67,NNW,343,0.0,1.0,65,0.00,,,0.00,,2013-02-28 14:32:00,
2013-02-28 09:42:00,44.0,32.0,29.68,NW,307,0.0,2.0,63,0.00,,,0.00,,2013-02-28 14:42:00,
2013-02-28 09:52:00,44.0,32.0,29.68,NW,307,0.0,2.0,63,0.00,,,0.00,,2013-02-28 14:52:00,
2013-02-28 10:02:00,45.0,33.0,29.68,NW,306,0.0,2.0,63,0.00,,,0.00,,2013-02-28 15:02:00,
2013-02-28 10:11:00,45.0,32.0,29.68,NW,316,0.0,4.0,59,0.00,,,0.00,,2013-02-28 15:11:00,
2013-02-28 10:22:00,45.0,32.0,29.68,NW,316,0.0,4.0,59,0.00,,,0.00,,2013-02-28 15:22:00,
2013-02-28 10:32:00,45.0,32.0,29.68,NW,316,0.0,1.0,59,0.00,,,0.00,,2013-02-28 15:32:00,
2013-02-28 10:42:00,45.0,32.0,29.68,NW,316,0.0,1.0,59,0.00,,,0.00,,2013-02-28 15:42:00,
2013-02-28 10:52:00,45.0,31.0,29.69,WNW,295,0.0,2.0,57,0.00,,,0.00,,2013-02-28 15:52:00,
2013-02-28 11:02:00,46.0,32.0,29.68,West,266,1.0,3.0,57,0.00,,,0.00,,2013-02-28 16:02:00,
2013-02-28 11:12:00,46.0,32.0,29.68,West,266,1.0,3.0,57,0.00,,,0.00,,2013-02-28 16:12:00,
2013-02-28 11:22:00,47.0,30.0,29.68,NNW,336,0.0,3.0,52,0.00,,,0.00,,2013-02-28 16:22:00,
2013-02-28 11:32:00,47.0,29.0,29.69,WNW,299,2.0,7.0,50,0.00,,,0.00,,2013-02-28 16:32:00,
2013-02-28 11:42:00,47.0,29.0,29.69,WNW,299,2.0,7.0,50,0.00,,,0.00,,2013-02-28 16:42:00,
2013-02-28 11:52:00,47.0,30.0,29.69,NNW,345,2.0,12.0,51,0.01,,,0.01,,2013-02-28 16:52:00,
2013-02-28 12:02:00,48.0,31.0,29.68,NW,315,1.0,5.0,52,0.01,,,0.01,,2013-02-28 17:02:00,
2013-02-28 12:12:00,48.0,32.0,29.68,NW,305,0.0,4.0,54,0.01,,,0.01,,2013-02-28 17:12:00,
2013-02-28 12:22:00,48.0,32.0,29.68,NW,305,0.0,4.0,54,0.01,,,0.01,,2013-02-28 17:22:00,
2013-02-28 12:32:00,48.0,33.0,29.68,WNW,289,0.0,12.0,56,0.01,,,0.01,,2013-02-28 17:32:00,
2013-02-28 12:42:00,48.0,33.0,29.68,WNW,289,0.0,12.0,56,0.01,,,0.01,,2013-02-28 17:42:00,
2013-02-28 12:53:00,48.0,33.0,29.67,North,353,0.0,6.0,55,0.00,,,0.01,,2013-02-28 17:53:00,
2013-02-28 13:02:00,48.0,33.0,29.67,NW,318,0.0,10.0,55,0.00,,,0.01,,2013-02-28 18:02:00,
2013-02-28 13:11:00,48.0,31.0,29.67,West,261,1.0,9.0,51,0.00,,,0.01,,2013-02-28 18:11:00,
2013-02-28 13:22:00,48.0,31.0,29.67,West,261,1.0,9.0,51,0.00,,,0.01,,2013-02-28 18:22:00,
2013-02-28 13:32:00,49.0,31.0,29.66,NNW,331,2.0,5.0,49,0.00,,,0.01,,2013-02-28 18:32:00,
2013-02-28 13:42:00,49.0,31.0,29.66,NNW,331,2.0,5.0,49,0.00,,,0.01,,2013-02-28 18:42:00,
2013-02-28 13:52:00,48.0,29.0,29.66,WSW,240,4.0,10.0,48,0.00,,,0.01,,2013-02-28 18:52:00,
2013-02-28 14:02:00,48.0,30.0,29.66,NW,318,0.0,11.0,50,0.00,,,0.01,,2013-02-28 19:02:00,
2013-02-28 14:11:00,48.0,30.0,29.66,NW,318,0.0,11.0,50,0.00,,,0.01,,2013-02-28 19:11:00,
2013-02-28 14:22:00,48.0,30.0,29.65,NW,307,0.0,7.0,50,0.00,,,0.01,,2013-02-28 19:22:00,
2013-02-28 14:32:00,49.0,32.0,29.65,NNW,338,0.0,8.0,52,0.00,,,0.01,,2013-02-28 19:32:00,
2013-02-28 14:42:00,49.0,32.0,29.65,NNW,338,0.0,8.0,52,0.00,,,0.01,,2013-02-28 19:42:00,
2013-02-28 14:52:00,49.0,32.0,29.66,NW,311,0.0,7.0,51,0.00,,,0.01,,2013-02-28 19:52:00,
2013-02-28 15:01:00,48.0,30.0,29.66,WNW,282,1.0,7.0,49,0.00,,,0.01,,2013-02-28 20:01:00,
2013-02-28 15:12:00,48.0,30.0,29.66,WNW,282,1.0,7.0,49,0.00,,,0.01,,2013-02-28 20:12:00,
2013-02-28 15:22:00,48.0,29.0,29.67,NW,313,1.0,9.0,48,0.00,,,0.01,,2013-02-28 20:22:00,
2013-02-28 15:32:00,48.0,28.0,29.67,WNW,303,0.0,6.0,45,0.00,,,0.01,,2013-02-28 20:32:00,
2013-02-28 15:42:00,48.0,28.0,29.67,WNW,303,0.0,6.0,45,0.00,,,0.01,,2013-02-28 20:42:00,
2013-02-28 15:52:00,50.0,27.0,29.67,SW,228,1.0,10.0,40,0.00,,,0.01,,2013-02-28 20:52:00,
2013-02-28 16:02:00,49.0,27.0,29.66,North,350,1.0,6.0,42,0.00,,,0.01,,2013-02-28 21:02:00,
2013-02-28 16:11:00,49.0,27.0,29.66,North,350,1.0,6.0,42,0.00,,,0.01,,2013-02-28 21:11:00,
2013-02-28 16:22:00,50.0,27.0,29.67,NNW,332,1.0,15.0,41,0.00,,,0.01,,2013-02-28 21:22:00,
2013-02-28 16:32:00,49.0,26.0,29.66,NNW,327,0.0,14.0,40,0.00,,,0.01,,2013-02-28 21:32:00,
2013-02-28 16:42:00,49.0,26.0,29.66,NNW,327,0.0,14.0,40,0.00,,,0.01,,2013-02-28 21:42:00,
2013-02-28 16:52:00,49.0,25.0,29.67,NW,322,4.0,10.0,39,0.00,,,0.01,,2013-02-28 21:52:00,
2013-02-28 17:01:00,49.0,27.0,29.67,WSW,258,1.0,4.0,42,0.00,,,0.01,,2013-02-28 22:01:00,
2013-02-28 17:11:00,49.0,27.0,29.67,WSW,258,1.0,4.0,42,0.00,,,0.01,,2013-02-28 22:11:00,
2013-02-28 17:22:00,48.0,27.0,29.68,WNW,298,0.0,10.0,43,0.00,,,0.01,,2013-02-28 22:22:00,
2013-02-28 17:32:00,48.0,27.0,29.69,WNW,301,0.0,7.0,44,0.00,,,0.01,,2013-02-28 22:32:00,
2013-02-28 17:42:00,48.0,27.0,29.69,WNW,301,0.0,7.0,44,0.00,,,0.01,,2013-02-28 22:42:00,
2013-02-28 17:52:00,47.0,26.0,29.69,WNW,292,0.0,6.0,44,0.00,,,0.01,,2013-02-28 22:52:00,
2013-02-28 18:01:00,47.0,26.0,29.70,WNW,302,0.0,10.0,44,0.00,,,0.01,,2013-02-28 23:01:00,
2013-02-28 18:11:00,47.0,27.0,29.70,NW,319,0.0,4.0,46,0.00,,,0.01,,2013-02-28 23:11:00,
2013-02-28 18:22:00,47.0,27.0,29.70,NW,319,0.0,4.0,46,0.00,,,0.01,,2013-02-28 23:22:00,
2013-02-28 18:32:00,46.0,27.0,29.70,NNW,336,1.0,4.0,47,0.00,,,0.01,,2013-02-28 23:32:00,
2013-02-28 18:42:00,46.0,27.0,29.70,NNW,336,1.0,4.0,47,0.00,,,0.01,,2013-02-28 23:42:00,
2013-02-28 18:53:00,45.0,27.0,29.71,WSW,257,0.0,4.0,49,0.00,,,0.01,,2013-02-28 23:53:00,
2013-02-28 19:02:00,44.0,28.0,29.71,NW,325,0.0,0.0,53,0.00,,,0.01,,2013-03-01 00:02:00,
2013-02-28 19:11:00,44.0,28.0,29.71,NW,325,0.0,0.0,53,0.00,,,0.01,,2013-03-01 00:11:00,
2013-02-28 19:22:00,43.0,28.0,29.72,West,274,0.0,3.0,56,0.00,,,0.01,,2013-03-01 00:22:00,
2013-02-28 19:32:00,42.0,27.0,29.72,WNW,297,0.0,3.0,55,0.00,,,0.01,,2013-03-01 00:32:00,
2013-02-28 19:42:00,42.0,27.0,29.72,WNW,297,0.0,3.0,55,0.00,,,0.01,,2013-03-01 00:42:00,
2013-02-28 19:52:00,42.0,27.0,29.73,WNW,296,0.0,0.0,56,0.00,,,0.01,,2013-03-01 00:52:00,
2013-02-28 20:01:00,42.0,28.0,29.73,WNW,295,0.0,0.0,57,0.00,,,0.01,,2013-03-01 01:01:00,
2013-02-28 20:11:00,41.0,27.0,29.74,WNW,301,0.0,3.0,57,0.00,,,0.01,,2013-03-01 01:11:00,
2013-02-28 20:21:00,41.0,27.0,29.74,WNW,301,0.0,3.0,57,0.00,,,0.01,,2013-03-01 01:21:00,
2013-02-28 20:32:00,41.0,27.0,29.73,NW,320,1.0,6.0,57,0.00,,,0.01,,2013-03-01 01:32:00,
2013-02-28 20:42:00,41.0,27.0,29.73,NW,320,1.0,6.0,57,0.00,,,0.01,,2013-03-01 01:42:00,
2013-02-28 20:52:00,41.0,27.0,29.74,NW,321,0.0,8.0,57,0.00,,,0.01,,2013-03-01 01:52:00,
2013-02-28 21:01:00,41.0,27.0,29.74,NNW,327,0.0,6.0,57,0.00,,,0.01,,2013-03-01 02:01:00,
2013-02-28 21:11:00,41.0,27.0,29.75,West,260,0.0,2.0,57,0.00,,,0.01,,2013-03-01 02:11:00,
2013-02-28 21:21:00,41.0,27.0,29.75,West,260,0.0,2.0,57,0.00,,,0.01,,2013-03-01 02:21:00,
2013-02-28 21:32:00,41.0,27.0,29.75,WNW,295,0.0,1.0,58,0.00,,,0.01,,2013-03-01 02:32:00,
2013-02-28 21:42:00,41.0,27.0,29.75,WNW,295,0.0,1.0,58,0.00,,,0.01,,2013-03-01 02:42:00,
2013-02-28 21:52:00,40.0,26.0,29.76,NW,309,0.0,4.0,57,0.00,,,0.01,,2013-03-01 02:52:00,
2013-02-28 22:02:00,40.0,26.0,29.76,NW,321,1.0,5.0,58,0.00,,,0.01,,2013-03-01 03:02:00,
2013-02-28 22:11:00,40.0,27.0,29.76,NW,320,0.0,0.0,60,0.00,,,0.01,,2013-03-01 03:11:00,
2013-02-28 22:22:00,40.0,27.0,29.76,NW,320,0.0,0.0,60,0.00,,,0.01,,2013-03-01 03:22:00,
2013-02-28 22:32:00,40.0,27.0,29.76,NNW,329,0.0,7.0,59,0.00,,,0.01,,2013-03-01 03:32:00,
2013-02-28 22:42:00,40.0,27.0,29.76,NNW,329,0.0,7.0,59,0.00,,,0.01,,2013-03-01 03:42:00,
2013-02-28 22:52:00,39.0,26.0,29.76,NW,307,0.0,2.0,60,0.00,,,0.01,,2013-03-01 03:52:00,
2013-02-28 23:01:00,38.0,26.0,29.76,NW,312,0.0,3.0,62,0.00,,,0.01,,2013-03-01 04:01:00,
2013-02-28 23:11:00,38.0,26.0,29.76,NW,312,0.0,3.0,62,0.00,,,0.01,,2013-03-01 04:11:00,
2013-02-28 23:21:00,38.0,27.0,29.76,NW,312,0.0,0.0,64,0.00,,,0.01,,2013-03-01 04:21:00,
2013-02-28 23:32:00,37.0,27.0,29.76,NW,319,0.0,3.0,67,0.00,,,0.01,,2013-03-01 04:32:00,
2013-02-28 23:42:00,37.0,27.0,29.76,NW,319,0.0,3.0,67,0.00,,,0.01,,2013-03-01 04:42:00,
2013-02-28 23:52:00,37.0,27.0,29.76,NW,319,0.0,0.0,67,0.00,,,0.01,,2013-03-01 04:52:00,